YBCG/OOL METAR and TAF weather

Enter ICAO airport designator
Station Type Date Time Source
YBCG METAR 2020/07/11 23:30 UTC NOAA

YBCG 112330Z AUTO 31005KT 9999 // NCD 21/15 Q1016 RF00.0/000.0


Station Type Date Time Source
YBCG Decoded METAR 2020/07/11 23:30 UTC NOAA

Coolangatta Airport Aws, Australia (YBCG) 28-10S 153-30E 6M
Jul 11, 2020 - 07:30 PM EDT / 2020.07.11 2330 UTC
Wind: from the NW (310 degrees) at 6 MPH (5 KT):0
Visibility: greater than 7 mile(s):0
Temperature: 69 F (21 C)
Dew Point: 59 F (15 C)
Relative Humidity: 68%
Pressure (altimeter): 30.00 in. Hg (1016 hPa)
ob: YBCG 112330Z AUTO 31005KT 9999 // NCD 21/15 Q1016 RF00.0/000.0
cycle: 23

Station Type Date Time Source
YBCG TAF 2020/07/11 18:45 UTC NOAA

TAF TAF
AMD YBCG 111742Z 1118/1218 32006KT 9999 FEW015 SCT025 BKN045
FM120200 35010KT 9999 SCT030 BKN050
FM120500 06010KT 9999 -SHRA SCT015 BKN030
FM121200 22005KT 9999 -RA SCT008 BKN015 INTER 1205/1210 4000 SHRA BKN010
TEMPO 1210/1216 3000 RA BKN008 PROB40 1216/1218 0500 FG NSC

Example: see airport list